createdAt,value
2018-05-26T00:01:47.563Z,15.00
2018-05-26T00:04:15.623Z,15.00
2018-05-26T00:06:44.434Z,15.00
2018-05-26T00:09:12.504Z,14.90
2018-05-26T00:11:41.315Z,14.90
2018-05-26T00:14:09.377Z,14.80
2018-05-26T00:16:38.184Z,14.80
2018-05-26T00:19:07.007Z,14.80
2018-05-26T00:21:35.080Z,14.80
2018-05-26T00:24:03.895Z,14.90
2018-05-26T00:26:31.972Z,14.90
2018-05-26T00:29:00.074Z,14.90
2018-05-26T00:31:28.131Z,14.80
2018-05-26T00:33:56.928Z,14.80
2018-05-26T00:36:25.814Z,14.90
2018-05-26T00:38:53.858Z,14.80
2018-05-26T00:41:21.871Z,14.90
2018-05-26T00:43:49.871Z,14.90
2018-05-26T00:46:18.658Z,14.80
2018-05-26T00:48:46.687Z,14.70
2018-05-26T00:51:14.796Z,14.70
2018-05-26T00:53:42.841Z,14.60
2018-05-26T00:56:11.601Z,14.50
2018-05-26T00:58:39.615Z,14.50
2018-05-26T01:01:08.398Z,14.60
2018-05-26T01:03:36.407Z,14.50
2018-05-26T01:06:04.423Z,14.50
2018-05-26T01:08:32.428Z,14.60
2018-05-26T01:11:00.512Z,14.60
2018-05-26T01:13:28.519Z,14.50
2018-05-26T01:15:57.304Z,14.60
2018-05-26T01:18:25.382Z,14.60
2018-05-26T01:20:54.194Z,14.60
2018-05-26T01:25:56.823Z,14.50
2018-05-26T01:28:25.599Z,14.50
2018-05-26T01:30:53.619Z,14.50
2018-05-26T01:33:22.410Z,14.50
2018-05-26T01:35:50.413Z,14.50
2018-05-26T01:38:19.194Z,14.50
2018-05-26T01:40:47.983Z,14.40
2018-05-26T01:43:16.017Z,14.30
2018-05-26T01:45:44.011Z,14.30
2018-05-26T01:48:12.128Z,14.30
2018-05-26T01:50:40.152Z,14.30
2018-05-26T01:53:08.927Z,14.30
2018-05-26T01:55:36.931Z,14.30
2018-05-26T01:58:05.730Z,14.20
2018-05-26T02:00:34.561Z,14.20
2018-05-26T02:03:02.559Z,14.20
2018-05-26T02:05:30.574Z,14.30
2018-05-26T02:07:59.396Z,14.30
2018-05-26T02:10:28.194Z,14.40
2018-05-26T02:12:56.208Z,14.30
2018-05-26T02:15:24.567Z,14.30
2018-05-26T02:17:53.341Z,14.30
2018-05-26T02:20:21.396Z,14.30
2018-05-26T02:22:49.427Z,14.30
2018-05-26T02:25:17.445Z,14.20
2018-05-26T02:27:45.455Z,14.20
2018-05-26T02:30:13.455Z,14.20
2018-05-26T02:32:41.475Z,14.20
2018-05-26T02:35:10.247Z,14.20
2018-05-26T02:37:39.771Z,14.20
2018-05-26T02:40:07.775Z,14.20
2018-05-26T02:42:35.795Z,14.20
2018-05-26T02:45:03.808Z,14.10
2018-05-26T02:47:31.883Z,14.10
2018-05-26T02:49:59.892Z,14.10
2018-05-26T02:52:27.910Z,14.00
2018-05-26T02:54:55.944Z,14.00
2018-05-26T02:57:23.947Z,14.00
2018-05-26T02:59:52.734Z,13.80
2018-05-26T03:02:20.731Z,13.80
2018-05-26T03:04:55.333Z,13.80
2018-05-26T03:07:29.142Z,13.80
2018-05-26T03:10:02.803Z,13.80
2018-05-26T03:12:37.235Z,13.80
2018-05-26T03:15:04.764Z,13.80
2018-05-26T03:17:47.646Z,13.80
2018-05-26T03:20:16.434Z,13.70
2018-05-26T03:22:44.419Z,13.70
2018-05-26T03:25:12.450Z,13.70
2018-05-26T03:27:40.450Z,13.60
2018-05-26T03:30:08.474Z,13.50
2018-05-26T03:32:36.473Z,13.50
2018-05-26T03:35:04.491Z,13.60
2018-05-26T03:37:32.510Z,13.70
2018-05-26T03:40:00.509Z,13.70
2018-05-26T03:42:29.322Z,13.70
2018-05-26T03:44:58.099Z,13.70
2018-05-26T03:47:26.131Z,13.60
2018-05-26T03:49:54.139Z,13.70
2018-05-26T03:52:22.213Z,13.70
2018-05-26T04:08:34.533Z,13.90
2018-05-26T04:11:02.535Z,14.00
2018-05-26T04:13:31.320Z,14.10
2018-05-26T04:16:00.094Z,14.20
2018-05-26T04:18:28.122Z,14.10
2018-05-26T04:20:56.895Z,14.20
2018-05-26T04:23:24.943Z,14.10
2018-05-26T04:25:52.975Z,14.20
2018-05-26T04:28:21.747Z,14.30
2018-05-26T04:30:49.775Z,14.30
2018-05-26T04:33:18.566Z,14.40
2018-05-26T04:35:46.592Z,14.30
2018-05-26T04:38:14.595Z,14.20
2018-05-26T04:40:42.665Z,14.20
2018-05-26T04:43:10.695Z,14.30
2018-05-26T04:45:39.484Z,14.30
2018-05-26T04:48:08.607Z,14.30
2018-05-26T04:50:37.424Z,14.40
2018-05-26T04:53:05.435Z,14.30
2018-05-26T04:55:33.508Z,14.40
2018-05-26T04:58:01.519Z,14.40
2018-05-26T05:00:29.547Z,14.30
2018-05-26T05:02:58.345Z,14.40
2018-05-26T05:05:29.059Z,14.50
2018-05-26T05:07:57.080Z,14.40
2018-05-26T05:10:25.890Z,14.50
2018-05-26T05:12:53.914Z,14.50
2018-05-26T05:15:21.923Z,14.70
2018-05-26T05:17:49.961Z,14.80
2018-05-26T05:20:18.382Z,14.90
2018-05-26T05:22:46.407Z,15.00
2018-05-26T05:25:15.223Z,15.30
2018-05-26T05:27:43.232Z,15.20
2018-05-26T05:30:11.243Z,15.40
2018-05-26T05:32:39.273Z,15.50
2018-05-26T05:35:08.063Z,15.80
2018-05-26T05:37:36.852Z,16.00
2018-05-26T05:40:04.916Z,15.90
2018-05-26T05:42:33.159Z,16.20
2018-05-26T05:45:01.254Z,16.30
2018-05-26T05:47:29.405Z,16.40
2018-05-26T05:49:58.163Z,16.50
2018-05-26T05:52:26.202Z,16.50
2018-05-26T05:54:54.236Z,16.50
2018-05-26T05:57:23.042Z,16.70
2018-05-26T05:59:51.039Z,16.70
2018-05-26T06:02:19.838Z,16.90
2018-05-26T06:04:47.847Z,16.90
2018-05-26T06:07:15.888Z,17.10
2018-05-26T06:09:43.903Z,17.20
2018-05-26T06:12:12.687Z,17.30
2018-05-26T06:14:40.687Z,17.20
2018-05-26T06:17:09.478Z,17.30
2018-05-26T06:19:37.481Z,17.20
2018-05-26T06:22:06.080Z,17.40
2018-05-26T06:24:34.115Z,17.40
2018-05-26T06:27:02.123Z,17.60
2018-05-26T06:29:30.139Z,17.60
2018-05-26T06:31:58.143Z,17.60
2018-05-26T06:34:26.169Z,17.70
2018-05-26T06:36:54.174Z,17.70
2018-05-26T06:39:22.170Z,17.80
2018-05-26T06:41:50.190Z,17.80
2018-05-26T06:44:18.195Z,18.00
2018-05-26T06:46:46.220Z,18.10
2018-05-26T06:49:14.217Z,18.30
2018-05-26T06:51:42.276Z,18.50
2018-05-26T06:54:10.283Z,18.50
2018-05-26T06:56:38.309Z,18.60
2018-05-26T06:59:06.348Z,18.70
2018-05-26T07:01:34.388Z,18.90
2018-05-26T07:04:02.391Z,18.90
2018-05-26T07:06:30.483Z,18.80
2018-05-26T07:08:59.235Z,19.10
2018-05-26T07:11:27.243Z,19.00
2018-05-26T07:13:55.267Z,19.30
2018-05-26T07:16:23.283Z,19.40
2018-05-26T07:18:51.337Z,19.50
2018-05-26T07:21:19.379Z,19.70
2018-05-26T07:23:48.172Z,19.90
2018-05-26T07:26:16.964Z,19.70
2018-05-26T07:28:44.969Z,19.70
2018-05-26T07:31:13.744Z,20.10
2018-05-26T07:33:41.767Z,20.00
2018-05-26T07:36:10.527Z,20.30
2018-05-26T07:38:38.527Z,20.20
2018-05-26T07:41:07.412Z,20.50
2018-05-26T07:43:35.464Z,20.50
2018-05-26T07:46:03.619Z,20.70
2018-05-26T07:48:31.672Z,20.80
2018-05-26T07:50:59.691Z,21.10
2018-05-26T07:53:27.744Z,21.20
2018-05-26T07:55:56.542Z,21.40
2018-05-26T07:58:24.783Z,21.40
2018-05-26T08:00:52.795Z,21.40
2018-05-26T08:03:20.798Z,21.40
2018-05-26T08:05:49.585Z,21.70
2018-05-26T08:08:18.456Z,21.60
2018-05-26T08:10:46.451Z,21.70
2018-05-26T08:13:14.458Z,21.80
2018-05-26T08:15:42.474Z,21.90
2018-05-26T08:18:11.257Z,22.10
2018-05-26T08:20:39.267Z,22.10
2018-05-26T08:23:07.322Z,22.00
2018-05-26T08:25:35.331Z,22.20
2018-05-26T08:28:04.242Z,22.40
2018-05-26T08:30:32.312Z,22.30
2018-05-26T08:33:01.174Z,22.40
2018-05-26T08:35:29.205Z,22.30
2018-05-26T08:37:57.967Z,22.60
2018-05-26T08:40:26.261Z,22.50
2018-05-26T08:42:54.387Z,22.80
2018-05-26T08:45:22.384Z,22.90
2018-05-26T08:47:50.386Z,23.10
2018-05-26T08:50:18.396Z,23.10
2018-05-26T08:52:46.414Z,22.90
2018-05-26T08:55:14.459Z,23.00
2018-05-26T08:57:42.488Z,23.10
2018-05-26T09:00:10.506Z,23.10
2018-05-26T09:02:38.521Z,23.20
2018-05-26T09:05:06.535Z,23.40
2018-05-26T09:07:34.535Z,23.40
2018-05-26T09:10:02.535Z,23.30
2018-05-26T09:12:30.565Z,23.20
2018-05-26T09:14:59.389Z,23.20
2018-05-26T09:17:27.331Z,23.10
2018-05-26T09:19:56.857Z,23.60
2018-05-26T09:22:25.643Z,23.90
2018-05-26T09:24:53.643Z,23.80
2018-05-26T09:27:22.549Z,24.40
2018-05-26T09:29:50.523Z,24.40
2018-05-26T09:32:18.539Z,24.50
2018-05-26T09:34:46.581Z,24.40
2018-05-26T09:37:16.274Z,24.60
2018-05-26T09:39:44.247Z,24.60
2018-05-26T09:42:12.289Z,24.80
2018-05-26T09:44:41.038Z,24.80
2018-05-26T09:47:09.047Z,24.70
2018-05-26T09:49:37.075Z,24.70
2018-05-26T09:52:05.082Z,24.70
2018-05-26T09:54:33.066Z,24.70
2018-05-26T09:57:01.079Z,24.30
2018-05-26T09:59:29.074Z,24.30
2018-05-26T10:01:57.087Z,24.40
2018-05-26T10:04:25.226Z,25.00
2018-05-26T10:06:53.194Z,25.40
2018-05-26T10:09:21.220Z,25.80
2018-05-26T10:11:49.986Z,26.40
2018-05-26T10:14:18.210Z,26.40
2018-05-26T10:16:46.986Z,26.10
2018-05-26T10:19:15.951Z,26.00
2018-05-26T10:21:43.959Z,26.20
2018-05-26T10:24:11.960Z,26.30
2018-05-26T10:26:39.985Z,25.90
2018-05-26T10:29:08.138Z,25.60
2018-05-26T10:31:36.935Z,25.60
2018-05-26T10:34:05.795Z,25.80
2018-05-26T10:36:34.722Z,25.80
2018-05-26T10:39:02.716Z,26.20
2018-05-26T10:41:30.765Z,26.30
2018-05-26T10:43:58.751Z,25.70
2018-05-26T10:46:26.764Z,25.70
2018-05-26T10:48:54.754Z,25.80
2018-05-26T10:51:22.773Z,26.20
2018-05-26T10:53:50.766Z,26.50
2018-05-26T10:56:18.791Z,26.40
2018-05-26T10:58:48.293Z,27.20
2018-05-26T11:01:16.311Z,27.20
2018-05-26T11:03:44.294Z,27.60
2018-05-26T11:06:13.073Z,27.30
2018-05-26T11:08:41.083Z,27.20
2018-05-26T11:11:09.851Z,27.50
2018-05-26T11:13:37.889Z,27.40
2018-05-26T11:16:05.901Z,27.70
2018-05-26T11:18:34.937Z,27.80
2018-05-26T11:21:02.929Z,27.90
2018-05-26T11:23:31.004Z,28.10
2018-05-26T11:25:59.029Z,28.60
2018-05-26T11:28:26.951Z,28.80
2018-05-26T11:30:54.974Z,28.80
2018-05-26T11:33:22.955Z,28.70
2018-05-26T11:35:51.739Z,28.30
2018-05-26T11:38:19.766Z,28.20
2018-05-26T11:40:47.781Z,28.00
2018-05-26T11:43:15.775Z,28.00
2018-05-26T11:45:43.792Z,28.20
2018-05-26T11:48:12.554Z,28.70
2018-05-26T11:50:40.563Z,28.70
2018-05-26T11:53:08.596Z,28.70
2018-05-26T11:55:36.911Z,28.40
2018-05-26T11:58:04.923Z,28.40
2018-05-26T12:00:33.674Z,28.50
2018-05-26T12:03:01.686Z,28.40
2018-05-26T12:05:29.680Z,28.30
2018-05-26T12:07:57.689Z,28.60
2018-05-26T12:10:26.451Z,29.00
2018-05-26T12:12:54.464Z,29.00
2018-05-26T12:15:22.467Z,29.20
2018-05-26T12:17:50.526Z,29.40
2018-05-26T12:20:19.322Z,29.60
2018-05-26T12:22:47.320Z,29.50
2018-05-26T12:25:16.111Z,30.20
2018-05-26T12:27:44.878Z,30.40
2018-05-26T12:30:12.894Z,30.30
2018-05-26T12:32:41.662Z,29.90
2018-05-26T12:35:09.655Z,29.80
2018-05-26T12:37:37.650Z,29.90
2018-05-26T12:40:05.739Z,30.00
2018-05-26T12:42:33.651Z,30.40
2018-05-26T12:45:01.667Z,30.50
2018-05-26T12:47:29.667Z,30.70
2018-05-26T12:49:57.670Z,30.30
2018-05-26T12:52:26.539Z,29.70
2018-05-26T12:54:54.530Z,29.60
2018-05-26T12:57:22.594Z,29.20
2018-05-26T12:59:50.646Z,28.30
2018-05-26T13:02:18.627Z,28.10
2018-05-26T13:04:46.634Z,28.60
2018-05-26T13:07:14.655Z,29.10
2018-05-26T13:09:42.647Z,28.90
2018-05-26T13:12:12.178Z,29.10
2018-05-26T13:14:40.956Z,29.60
2018-05-26T13:17:08.946Z,29.60
2018-05-26T13:19:36.952Z,30.20
2018-05-26T13:22:05.706Z,29.90
2018-05-26T13:24:33.718Z,29.80
2018-05-26T13:27:02.499Z,29.20
2018-05-26T13:29:30.508Z,29.10
2018-05-26T13:31:59.295Z,28.30
2018-05-26T13:34:27.450Z,28.30
2018-05-26T13:36:55.479Z,28.30
2018-05-26T13:39:24.249Z,28.00
2018-05-26T13:41:52.271Z,27.90
2018-05-26T13:44:21.023Z,27.80
2018-05-26T13:46:49.026Z,27.80
2018-05-26T13:49:17.078Z,27.80
2018-05-26T13:51:45.089Z,27.60
2018-05-26T13:54:13.104Z,27.50
2018-05-26T13:56:41.122Z,27.50
2018-05-26T13:59:09.074Z,27.60
2018-05-26T14:01:38.027Z,27.40
2018-05-26T14:04:06.044Z,27.40
2018-05-26T14:06:34.854Z,27.40
2018-05-26T14:09:03.631Z,27.90
2018-05-26T14:11:31.615Z,27.80
2018-05-26T14:13:59.623Z,29.00
2018-05-26T14:16:27.614Z,30.00
2018-05-26T14:18:56.386Z,30.70
2018-05-26T14:21:24.374Z,30.70
2018-05-26T14:23:52.396Z,31.10
2018-05-26T14:26:20.408Z,31.20
2018-05-26T14:28:49.228Z,31.50
2018-05-26T14:31:18.746Z,31.20
2018-05-26T14:33:46.749Z,31.20
2018-05-26T14:36:15.537Z,29.80
2018-05-26T14:38:43.526Z,29.70
2018-05-26T14:41:12.491Z,30.20
2018-05-26T14:43:40.486Z,30.20
2018-05-26T14:46:08.498Z,30.90
2018-05-26T14:48:36.530Z,31.20
2018-05-26T14:51:04.547Z,31.20
2018-05-26T14:53:32.578Z,31.50
2018-05-26T14:56:00.570Z,31.70
2018-05-26T14:58:28.586Z,31.40
2018-05-26T15:00:56.583Z,31.50
2018-05-26T15:03:24.603Z,31.20
2018-05-26T15:05:52.622Z,31.10
2018-05-26T15:08:20.629Z,31.30
2018-05-26T15:10:48.654Z,31.40
2018-05-26T15:13:16.673Z,31.30
2018-05-26T15:15:44.852Z,31.10
2018-05-26T15:18:12.859Z,30.80
2018-05-26T15:20:40.874Z,30.50
2018-05-26T15:23:09.634Z,30.00
2018-05-26T15:25:37.647Z,29.90
2018-05-26T15:28:05.647Z,29.70
2018-05-26T15:30:34.426Z,29.10
2018-05-26T15:33:02.422Z,29.00
2018-05-26T15:35:31.196Z,28.70
2018-05-26T15:37:59.207Z,28.70
2018-05-26T15:40:27.978Z,28.60
2018-05-26T15:42:56.862Z,28.60
2018-05-26T15:45:24.879Z,28.50
2018-05-26T15:47:52.875Z,28.40
2018-05-26T15:50:21.650Z,29.30
2018-05-26T15:52:49.655Z,29.20
2018-05-26T15:55:18.447Z,30.20
2018-05-26T15:57:46.457Z,30.10
2018-05-26T16:00:14.454Z,29.90
2018-05-26T16:02:42.472Z,29.80
2018-05-26T16:05:10.454Z,29.50
2018-05-26T16:07:38.490Z,29.20
2018-05-26T16:10:07.254Z,28.80
2018-05-26T16:12:35.250Z,28.80
2018-05-26T16:15:04.015Z,28.70
2018-05-26T16:17:32.031Z,28.70
2018-05-26T16:20:00.803Z,28.60
2018-05-26T16:22:28.795Z,28.60
2018-05-26T16:24:56.810Z,28.60
2018-05-26T16:27:25.564Z,28.70
2018-05-26T16:29:53.570Z,28.60
2018-05-26T16:32:21.587Z,28.70
2018-05-26T16:34:49.598Z,28.60
2018-05-26T16:37:18.434Z,28.50
2018-05-26T16:39:46.459Z,28.20
2018-05-26T16:42:14.469Z,28.20
2018-05-26T16:44:42.480Z,28.00
2018-05-26T16:47:10.504Z,28.00
2018-05-26T16:49:38.551Z,27.90
2018-05-26T16:52:08.055Z,27.60
2018-05-26T16:54:36.058Z,27.60
2018-05-26T16:57:04.827Z,27.50
2018-05-26T16:59:32.826Z,27.50
2018-05-26T17:02:00.823Z,27.50
2018-05-26T17:04:28.835Z,27.50
2018-05-26T17:06:56.834Z,27.40
2018-05-26T17:09:24.886Z,27.40
2018-05-26T17:11:52.865Z,27.40
2018-05-26T17:14:20.867Z,27.50
2018-05-26T17:16:49.628Z,27.80
2018-05-26T17:19:17.639Z,27.80
2018-05-26T17:21:46.413Z,28.10
2018-05-26T17:24:15.931Z,28.00
2018-05-26T17:26:43.927Z,27.90
2018-05-26T17:29:12.695Z,28.00
2018-05-26T17:31:40.701Z,28.00
2018-05-26T17:34:08.691Z,27.80
2018-05-26T17:36:37.708Z,27.60
2018-05-26T17:39:06.448Z,27.50
2018-05-26T17:41:34.460Z,27.30
2018-05-26T17:44:02.518Z,27.30
2018-05-26T17:46:30.503Z,27.30
2018-05-26T17:48:58.502Z,27.20
2018-05-26T17:51:26.499Z,27.00
2018-05-26T17:53:54.506Z,26.80
2018-05-26T17:56:23.271Z,26.60
2018-05-26T17:58:51.279Z,26.60
2018-05-26T18:01:20.059Z,26.50
2018-05-26T18:03:48.061Z,26.50
2018-05-26T18:06:16.839Z,26.50
2018-05-26T18:08:44.860Z,26.40
2018-05-26T18:11:13.627Z,26.50
2018-05-26T18:13:41.644Z,26.40
2018-05-26T18:16:10.419Z,26.20
2018-05-26T18:18:38.414Z,26.20
2018-05-26T18:21:06.427Z,26.10
2018-05-26T18:23:34.414Z,26.00
2018-05-26T18:26:02.441Z,25.90
2018-05-26T18:28:30.414Z,25.90
2018-05-26T18:30:58.427Z,25.80
2018-05-26T18:33:27.202Z,25.50
2018-05-26T18:35:55.190Z,25.50
2018-05-26T18:38:23.194Z,25.50
2018-05-26T18:40:51.986Z,25.30
2018-05-26T18:43:20.036Z,25.20
2018-05-26T18:45:48.022Z,25.20
2018-05-26T18:48:16.039Z,25.00
2018-05-26T18:50:44.050Z,24.80
2018-05-26T18:53:12.082Z,24.70
2018-05-26T18:55:40.101Z,24.50
2018-05-26T18:58:08.854Z,24.20
2018-05-26T19:00:36.862Z,24.10
2018-05-26T19:03:04.859Z,24.00
2018-05-26T19:05:33.643Z,23.80
2018-05-26T19:08:01.647Z,23.80
2018-05-26T19:10:30.427Z,23.50
2018-05-26T19:12:58.435Z,23.50
2018-05-26T19:15:27.209Z,23.30
2018-05-26T19:17:55.226Z,23.30
2018-05-26T19:20:23.230Z,23.20
2018-05-26T19:22:51.231Z,23.10
2018-05-26T19:25:19.250Z,23.10
2018-05-26T19:27:47.244Z,22.90
2018-05-26T19:30:16.031Z,22.80
2018-05-26T19:32:44.067Z,22.70
2018-05-26T19:35:12.805Z,22.50
2018-05-26T19:37:40.810Z,22.40
2018-05-26T19:40:09.579Z,22.30
2018-05-26T19:42:37.618Z,22.20
2018-05-26T19:45:05.633Z,22.20
2018-05-26T19:47:33.641Z,22.20
2018-05-26T19:50:01.706Z,22.20
2018-05-26T19:52:29.672Z,22.00
2018-05-26T19:54:57.674Z,22.00
2018-05-26T19:57:25.760Z,21.90
2018-05-26T19:59:53.902Z,21.80
2018-05-26T20:02:21.920Z,21.70
2018-05-26T20:04:49.958Z,21.50
2018-05-26T20:07:17.965Z,21.50
2018-05-26T20:09:45.984Z,21.50
2018-05-26T20:12:15.494Z,21.20
2018-05-26T20:14:43.540Z,21.20
2018-05-26T20:17:11.567Z,21.30
2018-05-26T20:19:39.559Z,21.30
2018-05-26T20:22:07.570Z,21.20
2018-05-26T20:24:35.587Z,21.00
2018-05-26T20:27:03.610Z,21.00
2018-05-26T20:29:31.627Z,20.80
2018-05-26T20:31:59.626Z,20.50
2018-05-26T20:34:27.657Z,20.50
2018-05-26T20:36:55.658Z,20.50
2018-05-26T20:39:24.488Z,20.60
2018-05-26T20:41:52.495Z,20.50
2018-05-26T20:44:20.515Z,20.60
2018-05-26T20:46:48.612Z,20.30
2018-05-26T20:49:16.655Z,20.30
2018-05-26T20:51:44.659Z,20.20
2018-05-26T20:54:12.683Z,20.20
2018-05-26T20:56:40.707Z,20.10
2018-05-26T20:59:08.722Z,20.10
2018-05-26T21:01:36.723Z,20.10
2018-05-26T21:04:05.490Z,19.90
2018-05-26T21:06:35.006Z,19.70
2018-05-26T21:09:03.020Z,19.70
2018-05-26T21:11:31.806Z,19.50
2018-05-26T21:13:59.813Z,19.40
2018-05-26T21:16:27.856Z,19.40
2018-05-26T21:18:56.855Z,19.30
2018-05-26T21:21:24.854Z,19.40
2018-05-26T21:23:52.879Z,19.50
2018-05-26T21:26:22.790Z,19.50
2018-05-26T21:28:52.591Z,19.30
2018-05-26T21:31:20.591Z,19.30
2018-05-26T21:33:48.818Z,19.20
2018-05-26T21:36:18.422Z,19.00
2018-05-26T21:38:47.217Z,19.00
2018-05-26T21:41:15.995Z,18.90
2018-05-26T21:43:44.005Z,18.90
2018-05-26T21:46:12.120Z,18.90
2018-05-26T21:48:40.103Z,18.90
2018-05-26T21:51:08.165Z,18.90
2018-05-26T21:53:36.198Z,18.80
2018-05-26T21:56:04.211Z,18.90
2018-05-26T21:58:32.988Z,18.80
2018-05-26T22:01:02.519Z,18.70
2018-05-26T22:03:30.531Z,18.70
2018-05-26T22:05:58.580Z,18.70
2018-05-26T22:08:26.559Z,18.60
2018-05-26T22:10:54.566Z,18.50
2018-05-26T22:13:23.381Z,18.40
2018-05-26T22:15:52.202Z,18.40
2018-05-26T22:18:20.228Z,18.40
2018-05-26T22:20:48.224Z,18.50
2018-05-26T22:23:16.251Z,18.50
2018-05-26T22:25:44.734Z,18.50
2018-05-26T22:28:13.489Z,18.40
2018-05-26T22:30:41.507Z,18.40
2018-05-26T22:33:09.508Z,18.40
2018-05-26T22:35:37.574Z,18.40
2018-05-26T22:38:06.315Z,18.30
2018-05-26T22:40:34.330Z,18.30
2018-05-26T22:43:02.329Z,18.30
2018-05-26T22:45:31.106Z,18.10
2018-05-26T22:47:59.115Z,18.00
2018-05-26T22:50:27.903Z,18.20
2018-05-26T22:52:55.895Z,18.10
2018-05-26T22:55:24.674Z,18.00
2018-05-26T22:57:52.676Z,18.00
2018-05-26T23:00:22.919Z,18.00
2018-05-26T23:02:51.686Z,18.00
2018-05-26T23:05:19.732Z,17.90
2018-05-26T23:07:47.753Z,17.90
2018-05-26T23:10:15.792Z,17.80
2018-05-26T23:12:43.786Z,17.70
2018-05-26T23:15:11.802Z,17.70
2018-05-26T23:17:39.823Z,17.60
2018-05-26T23:20:07.856Z,17.60
2018-05-26T23:22:35.867Z,17.50
2018-05-26T23:25:04.639Z,17.50
2018-05-26T23:27:32.659Z,17.50
2018-05-26T23:30:01.429Z,17.40
2018-05-26T23:32:29.438Z,17.30
2018-05-26T23:34:58.211Z,17.40
2018-05-26T23:37:26.255Z,17.40
2018-05-26T23:39:54.251Z,17.40
2018-05-26T23:42:22.312Z,17.40
2018-05-26T23:44:51.183Z,17.50
2018-05-26T23:47:19.251Z,17.40
2018-05-26T23:49:47.294Z,17.50
2018-05-26T23:52:15.310Z,17.30
2018-05-26T23:54:43.337Z,17.30
2018-05-26T23:57:12.123Z,17.20
2018-05-26T23:59:40.903Z,17.00
